Time;durP1;ratioP1;P1;durP2;ratioP2;P2;SDS_P1;SDS_P2;PMS_P1;PMS_P2;Temp;Humidity;BMP_temperature;BMP_pressure;BME280_temperature;BME280_humidity;BME280_pressure;Samples;Min_cycle;Max_cycle;Signal;HPM_P1;HPM_P2
2022/06/19 00:00:42;;;;;;;12.93;9.90;;;;;;;16.29;100.00;101018.54;1787969;80;21158;-88
2022/06/19 00:03:18;;;;;;;13.70;11.08;;;;;;;16.21;100.00;101024.52;1787455;79;21069;-90
2022/06/19 00:05:45;;;;;;;16.60;10.85;;;;;;;16.15;100.00;101023.75;1779182;80;20983;-87
2022/06/19 00:08:12;;;;;;;18.57;11.53;;;;;;;16.07;100.00;101022.67;1787518;80;21022;-87
2022/06/19 00:10:40;;;;;;;13.13;10.43;;;;;;;16.00;100.00;101026.83;1787867;80;20986;-87
2022/06/19 00:13:08;;;;;;;15.00;11.15;;;;;;;15.98;100.00;101027.48;1787589;79;21124;-87
2022/06/19 00:15:37;;;;;;;14.63;10.75;;;;;;;16.00;100.00;101028.64;1787543;80;20966;-88
2022/06/19 00:18:06;;;;;;;15.18;9.85;;;;;;;16.07;100.00;101034.48;1787453;79;20978;-87
2022/06/19 00:20:33;;;;;;;10.18;9.10;;;;;;;16.13;100.00;101032.28;1787536;79;21006;-87
2022/06/19 00:23:00;;;;;;;13.15;8.60;;;;;;;16.19;100.00;101031.71;1787524;80;21298;-87
2022/06/19 00:25:28;;;;;;;10.82;9.03;;;;;;;16.24;100.00;101037.36;1787609;79;21747;-88
2022/06/19 00:27:55;;;;;;;11.30;8.20;;;;;;;16.30;100.00;101038.59;1786522;79;21566;-88
2022/06/19 00:30:24;;;;;;;11.35;8.20;;;;;;;16.36;100.00;101040.64;1785373;80;21006;-88
2022/06/19 00:32:52;;;;;;;8.60;7.70;;;;;;;16.41;100.00;101045.00;1785040;79;21806;-88
2022/06/19 00:35:20;;;;;;;8.43;7.42;;;;;;;16.42;100.00;101037.47;1784951;79;21009;-87
2022/06/19 00:37:47;;;;;;;7.78;6.97;;;;;;;16.43;100.00;101038.28;1785131;80;21735;-88
2022/06/19 00:40:14;;;;;;;9.08;7.22;;;;;;;16.41;100.00;101038.44;1785762;79;21037;-88
2022/06/19 00:42:42;;;;;;;7.55;6.72;;;;;;;16.38;100.00;101038.20;1785789;79;21120;-87
2022/06/19 00:45:38;;;;;;;9.60;6.97;;;;;;;16.37;100.00;101041.83;1785518;80;21018;-89
2022/06/19 00:48:16;;;;;;;8.38;6.97;;;;;;;16.38;100.00;101047.41;1785767;80;21080;-87
2022/06/19 00:50:47;;;;;;;7.72;6.97;;;;;;;16.36;100.00;101041.95;1722719;81;22247;-87
2022/06/19 00:53:26;;;;;;;7.50;6.58;;;;;;;16.35;100.00;101045.08;1735349;82;21029;-88
2022/06/19 00:55:56;;;;;;;7.05;6.35;;;;;;;16.33;100.00;101044.39;1735363;82;21041;-87
2022/06/19 00:58:34;;;;;;;6.65;6.03;;;;;;;16.34;100.00;101045.23;1735357;82;21057;-88
2022/06/19 01:01:08;;;;;;;6.92;6.25;;;;;;;16.33;100.00;101044.89;1700345;84;20973;-87
2022/06/19 01:03:58;;;;;;;7.08;6.47;;;;;;;16.32;100.00;101043.23;1785036;79;21210;-87
2022/06/19 01:06:27;;;;;;;7.83;6.95;;;;;;;16.33;100.00;101048.83;1785467;80;21041;-89
2022/06/19 01:08:58;;;;;;;11.10;7.37;;;;;;;16.32;100.00;101050.61;1782422;80;32777;-88
2022/06/19 01:11:29;;;;;;;8.38;7.05;;;;;;;16.27;100.00;101050.22;1785768;79;21024;-90
2022/06/19 01:13:57;;;;;;;11.85;7.60;;;;;;;16.18;100.00;101049.75;1785135;80;21033;-88
2022/06/19 01:16:26;;;;;;;9.88;7.50;;;;;;;16.15;100.00;101046.93;1785554;80;21155;-88
2022/06/19 01:18:54;;;;;;;7.90;7.05;;;;;;;16.14;100.00;101058.91;1785580;80;21044;-88
2022/06/19 01:21:42;;;;;;;7.95;6.90;;;;;;;16.12;100.00;101057.70;1785732;79;21037;-88
2022/06/19 01:24:26;;;;;;;8.70;7.80;;;;;;;16.11;100.00;101064.42;1783416;80;21088;-88
2022/06/19 01:26:59;;;;;;;9.75;8.78;;;;;;;16.09;100.00;101060.14;1785510;79;20976;-87
2022/06/19 01:29:31;;;;;;;13.70;9.43;;;;;;;16.06;100.00;101058.28;1785565;79;21203;-87
2022/06/19 01:32:04;;;;;;;15.05;10.32;;;;;;;16.01;100.00;101056.56;1785475;80;21053;-87
2022/06/19 01:34:37;;;;;;;13.13;11.22;;;;;;;15.97;100.00;101062.59;1782310;80;21160;-89
2022/06/19 01:37:24;;;;;;;11.35;9.98;;;;;;;15.97;100.00;101052.08;1779568;80;21487;-88
2022/06/19 01:40:02;;;;;;;15.65;11.45;;;;;;;15.96;100.00;101059.61;1785313;79;21516;-88
2022/06/19 01:42:31;;;;;;;18.62;12.70;;;;;;;15.98;100.00;101063.41;1785535;80;21159;-87
2022/06/19 01:44:59;;;;;;;19.23;13.68;;;;;;;16.00;100.00;101065.41;1785530;80;21116;-88
2022/06/19 01:47:27;;;;;;;20.95;13.72;;;;;;;15.99;100.00;101058.00;1785935;79;21104;-87
2022/06/19 01:49:58;;;;;;;17.15;11.90;;;;;;;15.96;100.00;101060.92;1785624;80;21073;-90
2022/06/19 01:52:28;;;;;;;18.27;12.53;;;;;;;15.91;100.00;101070.53;1785416;80;21061;-88
2022/06/19 01:55:13;;;;;;;17.00;12.10;;;;;;;15.87;100.00;101064.38;1785748;80;21229;-88
2022/06/19 01:57:48;;;;;;;15.32;11.78;;;;;;;15.84;100.00;101064.65;1785416;79;21041;-87
2022/06/19 02:00:23;;;;;;;16.45;11.95;;;;;;;15.84;100.00;101065.95;1785530;80;21515;-88
2022/06/19 02:03:04;;;;;;;14.83;11.78;;;;;;;15.83;100.00;101070.39;1785249;80;21084;-88
2022/06/19 02:05:33;;;;;;;17.85;11.40;;;;;;;15.77;100.00;101071.73;1779367;80;21033;-88
2022/06/19 02:08:03;;;;;;;17.82;11.90;;;;;;;15.73;100.00;101074.31;1785577;79;21049;-88
2022/06/19 02:10:31;;;;;;;19.27;11.48;;;;;;;15.73;100.00;101080.03;1785531;80;21108;-88
2022/06/19 02:13:00;;;;;;;15.20;11.70;;;;;;;15.72;100.00;101075.74;1785630;80;21005;-88
2022/06/19 02:15:31;;;;;;;15.23;11.20;;;;;;;15.70;100.00;101075.08;1785913;80;21547;-88
2022/06/19 02:18:02;;;;;;;16.25;11.08;;;;;;;15.71;100.00;101078.86;1785549;80;21576;-88
2022/06/19 02:20:29;;;;;;;12.20;9.98;;;;;;;15.74;100.00;101080.38;1785492;80;21122;-88
2022/06/19 02:23:00;;;;;;;14.65;11.08;;;;;;;15.76;100.00;101079.27;1785598;80;21078;-88
2022/06/19 02:25:27;;;;;;;18.15;11.30;;;;;;;15.78;100.00;101085.22;1785412;80;20990;-88
2022/06/19 02:27:55;;;;;;;15.68;10.85;;;;;;;15.83;100.00;101082.65;1785493;80;21049;-88
2022/06/19 02:30:22;;;;;;;14.80;10.88;;;;;;;15.86;100.00;101086.35;1785488;79;21025;-88
2022/06/19 02:32:52;;;;;;;13.48;10.53;;;;;;;15.91;100.00;101088.91;1785528;80;21746;-88
2022/06/19 02:35:24;;;;;;;12.35;10.08;;;;;;;15.95;100.00;101092.09;1785802;80;21420;-88
2022/06/19 02:37:55;;;;;;;12.73;11.15;;;;;;;15.99;100.00;101087.39;1785999;80;21096;-88
2022/06/19 02:40:31;;;;;;;13.30;10.63;;;;;;;16.04;100.00;101089.95;1785351;80;21064;-88
2022/06/19 02:42:58;;;;;;;16.62;10.93;;;;;;;16.07;100.00;101085.70;1785142;80;21076;-88
2022/06/19 02:45:30;;;;;;;14.10;11.95;;;;;;;16.09;100.00;101091.66;1785490;80;21132;-88
2022/06/19 02:48:00;;;;;;;16.65;11.78;;;;;;;16.12;100.00;101093.67;1781637;80;20974;-89
2022/06/19 02:50:33;;;;;;;17.17;12.50;;;;;;;16.14;100.00;101100.94;1785726;80;21030;-90
2022/06/19 02:53:01;;;;;;;13.70;12.20;;;;;;;16.19;100.00;101100.02;1782146;80;21026;-89
2022/06/19 02:55:29;;;;;;;14.73;11.20;;;;;;;16.23;100.00;101100.06;1785788;80;21010;-89
2022/06/19 02:57:56;;;;;;;15.48;11.57;;;;;;;16.29;100.00;101100.84;1785817;80;21118;-88
2022/06/19 03:00:26;;;;;;;12.98;11.15;;;;;;;16.36;100.00;101098.45;1785421;80;21049;-88
2022/06/19 03:02:59;;;;;;;14.43;11.13;;;;;;;16.43;100.00;101099.55;1785770;80;21504;-88
2022/06/19 03:05:28;;;;;;;13.20;11.10;;;;;;;16.52;100.00;101100.51;1811442;79;21029;-89
2022/06/19 03:07:57;;;;;;;14.95;11.18;;;;;;;16.59;100.00;101091.55;1818156;78;21029;-89
2022/06/19 03:10:25;;;;;;;11.50;10.32;;;;;;;16.69;100.00;101094.98;1818044;78;21732;-88
2022/06/19 03:12:53;;;;;;;12.65;10.78;;;;;;;16.77;100.00;101091.14;1817840;78;21001;-89
2022/06/19 03:15:21;;;;;;;13.65;10.90;;;;;;;16.85;100.00;101084.67;1735559;81;21061;-89
2022/06/19 03:17:48;;;;;;;11.93;10.60;;;;;;;16.95;100.00;101081.20;1765637;81;21006;-88
2022/06/19 03:20:19;;;;;;;10.88;9.75;;;;;;;17.04;100.00;101079.02;1735472;82;21125;-89
2022/06/19 03:22:47;;;;;;;10.20;9.20;;;;;;;17.13;100.00;101079.93;1766077;81;21959;-89
2022/06/19 03:25:14;;;;;;;9.28;8.35;;;;;;;17.24;100.00;101082.84;1735574;81;21014;-88
2022/06/19 03:27:42;;;;;;;11.65;9.20;;;;;;;17.32;100.00;101085.09;1766154;81;21575;-89
2022/06/19 03:30:13;;;;;;;10.50;8.68;;;;;;;17.35;100.00;101087.41;1735565;81;20998;-88
2022/06/19 03:32:40;;;;;;;8.77;7.97;;;;;;;17.39;100.00;101085.81;1766238;81;20946;-89
2022/06/19 03:35:09;;;;;;;9.25;8.18;;;;;;;17.43;100.00;101088.47;1735451;81;21824;-88
2022/06/19 03:37:37;;;;;;;10.25;8.75;;;;;;;17.45;100.00;101093.11;1765763;81;21010;-88
2022/06/19 03:40:06;;;;;;;8.58;7.78;;;;;;;17.49;100.00;101097.11;1737706;82;21029;-88
2022/06/19 03:42:34;;;;;;;8.58;7.87;;;;;;;17.52;100.00;101096.80;1818798;78;21025;-88
2022/06/19 03:45:03;;;;;;;8.73;7.92;;;;;;;17.48;100.00;101102.84;1739122;82;21076;-88
2022/06/19 03:47:31;;;;;;;8.60;7.80;;;;;;;17.45;100.00;101100.53;1737739;82;21473;-88
2022/06/19 03:49:58;;;;;;;8.95;7.75;;;;;;;17.48;100.00;101105.98;1819089;78;21473;-89
2022/06/19 03:52:25;;;;;;;8.25;7.55;;;;;;;17.60;100.00;101109.23;1739250;82;21053;-90
2022/06/19 03:54:52;;;;;;;12.50;7.87;;;;;;;17.74;100.00;101110.02;1737857;82;21089;-89
2022/06/19 03:57:19;;;;;;;8.95;8.15;;;;;;;17.88;100.00;101112.62;1818837;78;21076;-90
2022/06/19 03:59:46;;;;;;;8.98;7.95;;;;;;;17.99;100.00;101111.58;1739534;82;21149;-89
2022/06/19 04:02:14;;;;;;;8.70;7.90;;;;;;;18.09;100.00;101116.76;1737396;82;21555;-89
2022/06/19 04:04:42;;;;;;;10.23;8.18;;;;;;;18.20;100.00;101120.48;1819083;78;21100;-88
2022/06/19 04:07:13;;;;;;;8.73;7.80;;;;;;;18.29;100.00;101120.88;1739124;82;21050;-88
2022/06/19 04:09:40;;;;;;;8.90;8.10;;;;;;;18.37;100.00;101117.97;1737997;82;21001;-87
2022/06/19 04:12:09;;;;;;;8.45;7.65;;;;;;;18.43;100.00;101123.93;1818694;78;21150;-87
2022/06/19 04:14:39;;;;;;;8.30;7.50;;;;;;;18.52;100.00;101126.96;1739167;82;21519;-87
2022/06/19 04:17:08;;;;;;;8.53;7.42;;;;;;;18.59;100.00;101125.83;1737546;82;20955;-87
2022/06/19 04:19:36;;;;;;;9.35;7.50;;;;;;;18.71;100.00;101131.66;1818744;78;21006;-87
2022/06/19 04:22:04;;;;;;;9.60;7.10;;;;;;;18.84;100.00;101126.81;1739198;82;21037;-87
2022/06/19 04:24:31;;;;;;;8.75;6.67;;;;;;;19.00;100.00;101127.39;1737646;82;21853;-88
2022/06/19 04:26:58;;;;;;;8.25;7.50;;;;;;;19.17;100.00;101123.50;1818802;78;20982;-87
2022/06/19 04:29:26;;;;;;;8.23;7.42;;;;;;;19.31;100.00;101128.16;1736087;82;21054;-88
2022/06/19 04:31:55;;;;;;;8.35;7.65;;;;;;;19.39;100.00;101124.73;1737543;82;21038;-87
2022/06/19 04:34:22;;;;;;;9.55;8.10;;;;;;;19.44;100.00;101119.78;1814312;78;21037;-87
2022/06/19 04:36:50;;;;;;;8.45;7.70;;;;;;;19.50;100.00;101113.88;1739132;82;21623;-88
2022/06/19 04:39:17;;;;;;;7.85;7.12;;;;;;;19.53;100.00;101118.81;1735618;81;21653;-87
2022/06/19 04:41:46;;;;;;;8.33;7.58;;;;;;;19.58;100.00;101123.61;1755741;81;21101;-88
2022/06/19 04:44:16;;;;;;;8.40;7.35;;;;;;;19.62;100.00;101122.80;1725313;81;21125;-88
2022/06/19 04:46:45;;;;;;;;;;;;;;;19.67;100.00;101125.77;1758033;81;21081;-88
2022/06/19 04:49:14;;;;;;;8.10;7.30;;;;;;;19.71;100.00;101128.42;1708614;81;21071;-89
2022/06/19 04:51:43;;;;;;;9.10;7.85;;;;;;;19.75;100.00;101128.41;1703014;82;21039;-88
2022/06/19 04:54:10;;;;;;;8.88;8.08;;;;;;;19.82;100.00;101129.44;1721608;83;21013;-87
2022/06/19 04:56:38;;;;;;;8.70;7.80;;;;;;;19.85;100.00;101130.45;1776225;80;20964;-87
2022/06/19 04:59:06;;;;;;;8.68;7.78;;;;;;;19.82;100.00;101133.41;1776620;80;21010;-87
2022/06/19 05:01:38;;;;;;;8.80;8.00;;;;;;;19.85;100.00;101137.05;1793037;79;21809;-88
2022/06/19 05:04:09;;;;;;;10.40;7.95;;;;;;;19.88;100.00;101137.72;1731969;81;21035;-88
2022/06/19 05:06:36;;;;;;;;;;;;;;;19.90;100.00;101136.56;1736425;82;21741;-88
2022/06/19 05:09:04;;;;;;;10.70;7.90;;;;;;;19.98;100.00;101144.50;1709008;83;20167;-87
2022/06/19 05:11:33;;;;;;;8.33;7.58;;;;;;;20.08;100.00;101145.65;1711416;82;21098;-88
2022/06/19 05:14:02;;;;;;;9.28;8.38;;;;;;;20.17;100.00;101137.23;1731910;81;21583;-88
2022/06/19 05:16:31;;;;;;;8.95;8.05;;;;;;;20.28;100.00;101146.64;1757088;81;21156;-87
2022/06/19 05:18:58;;;;;;;11.03;8.20;;;;;;;20.35;100.00;101146.30;1731951;81;21032;-86
2022/06/19 05:21:27;;;;;;;11.73;8.58;;;;;;;20.40;100.00;101145.30;1752008;81;21011;-85
2022/06/19 05:23:55;;;;;;;9.68;8.73;;;;;;;20.44;100.00;101143.98;1731831;81;21079;-86
2022/06/19 05:26:30;;;;;;;9.83;8.63;;;;;;;20.52;100.00;101144.45;1751789;81;21149;-85
2022/06/19 05:28:58;;;;;;;8.20;7.40;;;;;;;20.59;100.00;101145.94;1808411;78;20995;-86
2022/06/19 05:31:26;;;;;;;10.70;8.73;;;;;;;20.66;100.00;101141.62;1732037;81;21054;-86
2022/06/19 05:33:54;;;;;;;10.20;8.88;;;;;;;20.68;100.00;101146.73;1730709;82;21078;-85
2022/06/19 05:36:22;;;;;;;9.83;7.95;;;;;;;20.68;100.00;101143.61;1732239;82;21913;-85
2022/06/19 05:38:50;;;;;;;14.73;11.95;;;;;;;20.71;100.00;101145.89;1729368;82;21174;-87
2022/06/19 05:41:18;;;;;;;9.40;8.53;;;;;;;20.77;100.00;101146.59;1727401;81;21097;-85
2022/06/19 05:43:49;;;;;;;11.15;9.33;;;;;;;20.87;100.00;101148.22;1714218;83;21092;-85
2022/06/19 05:46:20;;;;;;;10.85;9.58;;;;;;;20.96;100.00;101149.34;1713774;83;21104;-85
2022/06/19 05:48:48;;;;;;;9.98;8.30;;;;;;;21.05;100.00;101146.66;1715569;83;21030;-85
2022/06/19 05:51:22;;;;;;;10.08;9.08;;;;;;;21.17;100.00;101149.76;1720304;83;21184;-86
2022/06/19 05:53:54;;;;;;;10.30;9.23;;;;;;;21.26;100.00;101149.54;1726389;83;21018;-85
2022/06/19 05:56:23;;;;;;;10.25;8.95;;;;;;;21.42;100.00;101153.09;1705326;82;21108;-85
2022/06/19 05:58:52;;;;;;;10.40;8.85;;;;;;;21.55;100.00;101153.34;1701755;83;21343;-85
2022/06/19 06:01:22;;;;;;;10.85;9.05;;;;;;;21.62;100.00;101144.23;1701662;83;21017;-86
2022/06/19 06:03:50;;;;;;;11.78;8.83;;;;;;;21.74;100.00;101149.47;1701735;83;21081;-85
2022/06/19 06:06:21;;;;;;;10.43;9.33;;;;;;;21.88;100.00;101145.72;1727902;83;21092;-85
2022/06/19 06:08:49;;;;;;;9.85;8.85;;;;;;;21.98;100.00;101142.34;1724183;83;21069;-85
2022/06/19 06:11:20;;;;;;;10.58;9.48;;;;;;;22.05;100.00;101140.62;1718253;83;21634;-85
2022/06/19 06:13:48;;;;;;;10.90;8.98;;;;;;;22.10;100.00;101139.24;1716040;83;21005;-85
2022/06/19 06:16:19;;;;;;;10.28;9.15;;;;;;;22.14;100.00;101136.57;1715936;83;21171;-86
2022/06/19 06:18:48;;;;;;;13.62;9.05;;;;;;;22.24;100.00;101137.63;1714524;83;21054;-85
2022/06/19 06:21:21;;;;;;;9.70;7.62;;;;;;;22.33;100.00;101134.72;1714291;83;21066;-85
2022/06/19 06:23:49;;;;;;;9.75;7.92;;;;;;;22.45;100.00;101142.28;1712579;83;21011;-85
2022/06/19 06:26:24;;;;;;;9.25;8.18;;;;;;;22.49;100.00;101139.08;1700876;84;21032;-85
2022/06/19 06:28:54;;;;;;;10.00;7.90;;;;;;;22.54;100.00;101127.92;1721598;83;21516;-85
2022/06/19 06:31:21;;;;;;;9.13;8.20;;;;;;;22.66;100.00;101128.30;1729567;83;21572;-85
2022/06/19 06:33:49;;;;;;;9.68;8.70;;;;;;;22.78;100.00;101122.83;1728744;83;21098;-85
2022/06/19 06:36:17;;;;;;;8.20;7.40;;;;;;;22.90;100.00;101125.03;1701885;82;21072;-85
2022/06/19 06:38:45;;;;;;;9.33;6.75;;;;;;;22.97;100.00;101123.28;1712085;83;21515;-85
2022/06/19 06:41:14;;;;;;;8.48;7.60;;;;;;;23.02;100.00;101124.05;1722501;81;21224;-85
2022/06/19 06:43:44;;;;;;;8.03;7.10;;;;;;;23.06;100.00;101118.67;1718662;82;21063;-85
2022/06/19 06:46:19;;;;;;;7.37;6.67;;;;;;;23.09;100.00;101121.78;1718452;82;20985;-85
2022/06/19 06:48:50;;;;;;;6.92;6.20;;;;;;;23.09;100.00;101120.45;1717949;82;21476;-84
2022/06/19 06:51:22;;;;;;;6.45;5.85;;;;;;;23.13;100.00;101115.11;1704399;82;21020;-85
2022/06/19 06:53:51;;;;;;;7.75;6.17;;;;;;;23.15;100.00;101118.89;1706500;82;21156;-85
2022/06/19 06:56:20;;;;;;;6.97;6.05;;;;;;;23.25;100.00;101115.48;1707649;82;21046;-85
2022/06/19 06:58:47;;;;;;;9.28;6.90;;;;;;;23.37;100.00;101117.14;1705748;84;21141;-84
2022/06/19 07:01:21;;;;;;;7.90;7.12;;;;;;;23.50;100.00;101109.81;1705782;84;21552;-84
2022/06/19 07:03:59;;;;;;;7.50;6.80;;;;;;;23.64;100.00;101109.41;1705324;84;20987;-85
2022/06/19 07:06:28;;;;;;;11.55;7.15;;;;;;;23.70;100.00;101116.65;1705884;84;21039;-84
2022/06/19 07:08:56;;;;;;;7.37;6.67;;;;;;;23.81;100.00;101112.66;1705701;84;21027;-84
2022/06/19 07:11:28;;;;;;;7.00;6.22;;;;;;;23.91;100.00;101117.14;1705884;84;21425;-84
2022/06/19 07:13:57;;;;;;;6.40;5.80;;;;;;;24.06;100.00;101114.41;1705307;84;21516;-85
2022/06/19 07:16:24;;;;;;;6.75;6.05;;;;;;;24.22;100.00;101117.31;1722299;82;21102;-85
2022/06/19 07:18:52;;;;;;;7.53;6.62;;;;;;;24.30;100.00;101116.32;1716665;82;21168;-86
2022/06/19 07:21:21;;;;;;;8.03;6.80;;;;;;;24.31;100.00;101121.96;1705570;84;20962;-84
2022/06/19 07:23:48;;;;;;;7.65;6.30;;;;;;;24.38;100.00;101123.34;1705577;84;21533;-85
2022/06/19 07:26:18;;;;;;;6.87;6.05;;;;;;;24.50;100.00;101127.09;1705537;84;22060;-85
2022/06/19 07:28:47;;;;;;;8.10;6.12;;;;;;;24.58;100.00;101126.94;1697960;83;21031;-85
2022/06/19 07:31:16;;;;;;;7.35;6.50;;;;;;;24.70;100.00;101129.09;1697703;84;21174;-86
2022/06/19 07:33:43;;;;;;;7.50;6.72;;;;;;;24.82;100.00;101126.69;1697708;84;21099;-86
2022/06/19 07:36:18;;;;;;;7.83;6.17;;;;;;;24.91;100.00;101127.33;1697457;84;22176;-84
2022/06/19 07:38:45;;;;;;;8.10;6.67;;;;;;;24.93;100.00;101130.62;1697641;84;21004;-86
2022/06/19 07:41:13;;;;;;;7.28;6.67;;;;;;;24.91;100.00;101127.33;1713545;81;20984;-85
2022/06/19 07:43:46;;;;;;;7.47;6.42;;;;;;;24.90;100.00;101127.86;1732266;82;21474;-85
2022/06/19 07:46:11;;;;;;;6.90;6.12;;;;;;;24.96;100.00;101123.06;1731460;82;20980;-86
2022/06/19 07:51:28;;;;;;;10.25;7.30;;;;;;;25.12;100.00;101126.39;1732151;82;21070;-87
2022/06/19 07:53:56;;;;;;;7.42;6.72;;;;;;;25.23;100.00;101119.66;1732067;82;21038;-86
2022/06/19 07:56:24;;;;;;;7.75;6.85;;;;;;;25.31;100.00;101122.14;1732075;82;21154;-85
2022/06/19 07:58:51;;;;;;;9.93;6.85;;;;;;;25.39;100.00;101119.33;1731993;82;21085;-85
2022/06/19 08:01:19;;;;;;;7.10;6.40;;;;;;;25.46;100.00;101121.49;1732094;82;21046;-85
2022/06/19 08:03:46;;;;;;;6.50;5.95;;;;;;;25.49;100.00;101123.77;1731932;82;21141;-87
2022/06/19 08:06:17;;;;;;;7.20;6.40;;;;;;;25.51;100.00;101128.39;1732354;82;21071;-85
2022/06/19 08:08:43;;;;;;;6.62;6.10;;;;;;;25.54;100.00;101124.49;1728520;82;21517;-85
2022/06/19 08:11:10;;;;;;;7.55;6.85;;;;;;;25.53;100.00;101123.34;1732190;82;20955;-85
2022/06/19 08:13:38;;;;;;;7.35;6.65;;;;;;;25.56;100.00;101116.28;1736185;81;21031;-85
2022/06/19 08:16:09;;;;;;;8.45;6.85;;;;;;;25.64;100.00;101116.89;1755324;81;21152;-84
2022/06/19 08:18:39;;;;;;;8.73;6.08;;;;;;;25.81;100.00;101115.17;1755264;81;21094;-85
2022/06/19 08:21:07;;;;;;;6.50;5.87;;;;;;;25.99;100.00;101114.58;1755481;81;21555;-85
2022/06/19 08:23:35;;;;;;;6.50;5.90;;;;;;;26.17;100.00;101107.80;1755212;81;21034;-85
2022/06/19 08:26:03;;;;;;;6.55;5.58;;;;;;;26.38;100.00;101108.91;1755416;81;21065;-85
2022/06/19 08:29:12;;;;;;;5.50;4.83;;;;;;;26.56;100.00;101104.76;1755353;80;21050;-84
2022/06/19 08:31:03;;;;;;;6.97;5.30;;;;;;;26.71;100.00;101110.66;1736960;81;21022;-86
2022/06/19 08:33:30;;;;;;;5.85;5.35;;;;;;;26.85;100.00;101111.44;1755386;80;21298;-85
2022/06/19 08:36:02;;;;;;;6.03;5.53;;;;;;;26.98;100.00;101108.42;1755457;81;21525;-86
2022/06/19 08:38:35;;;;;;;6.40;5.78;;;;;;;27.10;100.00;101110.71;1753768;81;21014;-85
2022/06/19 08:41:26;;;;;;;6.12;5.30;;;;;;;27.05;100.00;101106.53;1765113;80;21553;-85
2022/06/19 08:44:15;;;;;;;6.08;5.47;;;;;;;26.81;100.00;101102.23;1799498;79;21041;-85
2022/06/19 08:46:54;;;;;;;6.17;5.53;;;;;;;26.41;100.00;101105.80;1792073;80;21083;-84
2022/06/19 08:49:48;;;;;;;6.75;6.12;;;;;;;26.02;100.00;101103.47;1795200;79;21037;-85
2022/06/19 08:52:39;;;;;;;6.37;5.78;;;;;;;25.66;100.00;101104.72;1731847;80;21078;-85
2022/06/19 08:55:45;;;;;;;7.15;5.97;;;;;;;25.36;100.00;101113.02;1795253;79;20978;-85
2022/06/19 08:58:33;;;;;;;6.55;5.95;;;;;;;25.12;100.00;101103.75;1799500;79;20997;-85
2022/06/19 09:01:11;;;;;;;6.22;5.62;;;;;;;25.15;100.00;101105.50;1722975;82;21268;-85
2022/06/19 09:07:26;;;;;;;6.65;5.90;;;;;;;25.60;100.00;101102.34;1800159;79;21560;-85
2022/06/19 09:10:38;;;;;;;8.28;5.53;;;;;;;25.85;100.00;101098.23;1761251;79;21006;-86
2022/06/19 09:13:16;;;;;;;6.00;5.42;;;;;;;26.03;100.00;101101.11;1799846;79;21010;-86
2022/06/19 09:15:48;;;;;;;5.53;5.03;;;;;;;26.23;100.00;101090.45;1799305;79;21578;-86
2022/06/19 09:18:27;;;;;;;6.90;5.55;;;;;;;26.41;99.62;101091.64;1792729;79;21068;-86
2022/06/19 09:21:27;;;;;;;6.70;5.12;;;;;;;26.44;93.62;101092.05;1792388;79;21041;-86
2022/06/19 09:24:39;;;;;;;6.33;5.10;;;;;;;26.32;91.05;101086.22;1798795;79;21013;-84
2022/06/19 09:27:11;;;;;;;6.50;5.10;;;;;;;26.29;98.38;101090.13;1799344;79;20993;-83
2022/06/19 09:30:05;;;;;;;7.30;5.10;;;;;;;26.30;87.09;101081.10;1796321;79;21121;-82
2022/06/19 09:32:46;;;;;;;5.12;4.62;;;;;;;26.41;84.15;101087.64;1787995;80;21073;-82
2022/06/19 09:35:25;;;;;;;4.95;4.40;;;;;;;26.54;87.84;101093.46;1808905;78;21021;-82
2022/06/19 09:38:09;;;;;;;5.00;4.35;;;;;;;26.60;77.79;101088.61;1803921;78;21020;-83
2022/06/19 09:40:42;;;;;;;3.92;3.62;;;;;;;26.60;73.23;101080.59;1799090;79;21566;-82
2022/06/19 09:43:35;;;;;;;4.45;3.77;;;;;;;26.68;77.85;101089.70;1729946;81;21120;-83
2022/06/19 09:46:23;;;;;;;5.87;5.25;;;;;;;26.80;85.11;101087.22;1740789;81;21595;-83
2022/06/19 09:49:01;;;;;;;5.25;4.60;;;;;;;26.89;75.93;101081.95;1738873;81;21085;-83
2022/06/19 09:51:41;;;;;;;4.90;4.50;;;;;;;26.97;74.22;101080.06;1802629;78;21915;-83
2022/06/19 09:54:25;;;;;;;5.67;4.85;;;;;;;27.02;70.41;101075.72;1791143;78;20954;-87
2022/06/19 09:57:03;;;;;;;7.95;5.40;;;;;;;27.14;71.02;101079.87;1795324;78;21084;-83
2022/06/19 09:59:51;;;;;;;7.80;5.47;;;;;;;27.26;70.33;101078.66;1790317;78;21045;-83
2022/06/19 10:02:48;;;;;;;6.62;4.70;;;;;;;27.43;76.51;101074.97;1799344;78;21619;-84
2022/06/19 10:05:29;;;;;;;6.00;4.47;;;;;;;27.61;69.67;101074.21;1778920;78;21479;-83
2022/06/19 10:08:02;;;;;;;6.75;4.75;;;;;;;27.70;74.62;101070.23;1742033;81;20963;-84
2022/06/19 10:11:04;;;;;;;6.45;4.90;;;;;;;27.80;66.20;101071.06;1786769;78;21250;-83
2022/06/19 10:13:37;;;;;;;4.95;4.30;;;;;;;27.78;61.47;101069.15;1798114;78;21168;-83
2022/06/19 10:16:20;;;;;;;6.70;4.90;;;;;;;27.79;61.79;101069.95;1773078;78;21001;-83
2022/06/19 10:18:53;;;;;;;6.60;5.28;;;;;;;27.85;64.91;101065.06;1790439;80;20994;-84
2022/06/19 10:24:24;;;;;;;8.33;5.65;;;;;;;27.95;65.72;101064.05;1791386;80;21143;-83
2022/06/19 10:27:00;;;;;;;8.43;5.65;;;;;;;28.03;60.82;101063.77;1787554;80;21027;-84
2022/06/19 10:30:01;;;;;;;5.90;5.12;;;;;;;28.11;62.09;101056.01;1794813;78;21012;-83
2022/06/19 10:32:43;;;;;;;5.95;5.30;;;;;;;28.21;59.78;101051.97;1790736;80;21040;-87
2022/06/19 10:35:30;;;;;;;4.70;4.30;;;;;;;28.32;64.75;101051.24;1786326;80;20934;-84
2022/06/19 10:38:22;;;;;;;4.37;3.70;;;;;;;28.44;62.80;101051.31;1788673;80;21135;-83
2022/06/19 10:42:00;;;;;;;4.95;4.22;;;;;;;28.36;56.58;101051.61;1785470;78;21446;-83
2022/06/19 10:43:57;;;;;;;5.35;4.60;;;;;;;28.24;60.23;101048.86;1761899;79;21046;-87
2022/06/19 10:46:26;;;;;;;6.50;4.33;;;;;;;28.21;58.03;101044.78;1790670;79;21062;-83
2022/06/19 10:49:16;;;;;;;5.53;3.62;;;;;;;28.21;55.31;101047.45;1790820;79;21053;-83
2022/06/19 10:51:55;;;;;;;4.40;4.00;;;;;;;28.09;63.46;101048.71;1741566;78;22190;-85
2022/06/19 10:54:43;;;;;;;4.60;3.85;;;;;;;28.00;56.32;101045.99;1781785;80;21022;-83
2022/06/19 10:57:25;;;;;;;4.67;4.17;;;;;;;27.94;57.35;101051.70;1755802;81;21650;-82
2022/06/19 10:59:52;;;;;;;5.60;3.98;;;;;;;28.05;54.83;101050.15;1727517;81;21033;-83
2022/06/19 11:05:36;;;;;;;4.92;4.05;;;;;;;28.48;62.36;101045.82;1678437;82;21261;-83
2022/06/19 11:08:03;;;;;;;4.05;3.52;;;;;;;28.76;56.86;101043.92;1790896;80;21084;-83
2022/06/19 11:10:44;;;;;;;3.72;3.25;;;;;;;28.79;59.84;101040.00;1750393;81;20995;-84
2022/06/19 11:13:12;;;;;;;;;;;;;;;28.68;54.60;101039.38;1748427;81;21067;-84
2022/06/19 11:15:47;;;;;;;5.62;4.00;;;;;;;28.53;51.46;101033.90;1740193;80;20440;-83
2022/06/19 11:18:20;;;;;;;4.70;4.30;;;;;;;28.54;55.06;101032.03;1801771;78;21568;-83
2022/06/19 11:21:01;;;;;;;6.53;4.17;;;;;;;28.70;55.38;101034.65;1790838;78;21036;-85
2022/06/19 11:23:43;;;;;;;5.60;4.25;;;;;;;28.75;55.97;101031.59;1790878;78;21043;-83
2022/06/19 11:26:17;;;;;;;4.50;4.10;;;;;;;28.85;58.17;101027.52;1790941;79;20986;-83
2022/06/19 11:29:03;;;;;;;4.22;3.83;;;;;;;29.05;57.32;101026.73;1790792;79;21043;-83
2022/06/19 11:31:38;;;;;;;4.28;3.87;;;;;;;29.26;57.88;101029.91;1789463;78;22647;-83
2022/06/19 11:37:31;;;;;;;8.03;4.40;;;;;;;29.31;57.17;101025.20;1790708;79;20998;-83
2022/06/19 11:40:07;;;;;;;4.45;4.05;;;;;;;29.37;59.18;101024.30;1744388;81;21057;-86
2022/06/19 11:42:39;;;;;;;4.55;4.05;;;;;;;29.40;55.75;101025.19;1795132;78;21019;-83
2022/06/19 11:45:16;;;;;;;5.15;4.30;;;;;;;29.20;51.13;101027.66;1746429;81;21191;-83
2022/06/19 11:48:01;;;;;;;5.00;4.50;;;;;;;29.02;56.21;101024.50;1799620;78;21029;-87
2022/06/19 11:50:50;;;;;;;5.17;4.17;;;;;;;28.99;56.01;101020.95;1798281;78;21101;-82
2022/06/19 11:53:30;;;;;;;4.72;4.33;;;;;;;28.90;54.77;101024.47;1794591;78;21068;-85
2022/06/19 11:56:27;;;;;;;4.58;4.20;;;;;;;28.71;57.47;101014.86;1740105;81;21060;-84